Time;durP1;ratioP1;P1;durP2;ratioP2;P2;SDS_P1;SDS_P2;PMS_P1;PMS_P2;Temp;Humidity;BMP_temperature;BMP_pressure;BME280_temperature;BME280_humidity;BME280_pressure;Samples;Min_cycle;Max_cycle;Signal;HPM_P1;HPM_P2
2022/12/07 00:01:25;;;;;;;6.97;2.80;;;;;;;17.46;53.14;96468.78;5093096;28;20101;-36
2022/12/07 00:03:53;;;;;;;9.48;2.78;;;;;;;17.43;53.01;96464.22;5093442;28;20032;-35
2022/12/07 00:06:19;;;;;;;6.85;2.72;;;;;;;17.40;52.83;96458.94;5091828;28;20103;-35
2022/12/07 00:08:45;;;;;;;7.05;2.45;;;;;;;17.44;52.90;96464.97;5093287;28;20555;-36
2022/12/07 00:11:14;;;;;;;7.20;2.20;;;;;;;17.38;53.26;96462.16;5093349;28;20077;-36
2022/12/07 00:13:40;;;;;;;4.32;2.28;;;;;;;17.43;52.99;96464.22;5092581;28;20027;-36
2022/12/07 00:16:09;;;;;;;6.45;2.70;;;;;;;17.41;52.88;96461.22;5092780;28;20020;-37
2022/12/07 00:18:35;;;;;;;7.93;2.10;;;;;;;17.51;52.93;96459.91;5092628;28;20028;-36
2022/12/07 00:21:06;;;;;;;8.35;2.47;;;;;;;17.38;53.01;96451.19;5107663;28;20037;-36
2022/12/07 00:23:33;;;;;;;4.95;2.72;;;;;;;17.42;52.98;96453.75;5113524;28;20031;-35
2022/12/07 00:26:10;;;;;;;7.60;2.67;;;;;;;17.41;52.94;96452.25;5113219;28;20073;-37
2022/12/07 00:28:35;;;;;;;5.82;2.50;;;;;;;17.40;52.87;96447.97;5113437;28;20038;-36
2022/12/07 00:31:04;;;;;;;4.80;1.95;;;;;;;17.41;52.99;96442.03;5112929;28;20024;-35
2022/12/07 00:33:29;;;;;;;8.82;2.72;;;;;;;17.38;52.87;96434.75;5113217;28;20501;-36
2022/12/07 00:35:56;;;;;;;8.02;2.70;;;;;;;17.40;52.95;96445.25;5113358;28;20023;-35
2022/12/07 00:38:22;;;;;;;7.35;2.20;;;;;;;17.37;53.14;96432.47;5111529;28;20038;-35
2022/12/07 00:40:57;;;;;;;9.75;2.75;;;;;;;17.38;52.98;96440.22;5113258;28;20031;-36
2022/12/07 00:43:23;;;;;;;5.35;1.95;;;;;;;17.36;53.10;96439.94;5113277;28;20146;-35
2022/12/07 00:45:48;;;;;;;9.82;2.80;;;;;;;17.37;52.75;96438.72;5113055;28;20551;-36
2022/12/07 00:48:14;;;;;;;6.55;2.35;;;;;;;17.36;52.73;96431.72;5112852;28;20547;-36
2022/12/07 00:50:39;;;;;;;5.03;2.20;;;;;;;17.33;52.59;96431.88;5112739;28;20034;-33
2022/12/07 00:53:05;;;;;;;5.90;2.20;;;;;;;17.30;53.07;96435.59;5112527;28;20047;-35
2022/12/07 00:55:35;;;;;;;8.43;2.63;;;;;;;17.37;52.99;96443.44;5111954;28;20126;-35
2022/12/07 00:58:00;;;;;;;6.68;2.22;;;;;;;17.33;52.96;96435.38;5112355;28;20027;-35
2022/12/07 01:00:26;;;;;;;6.70;2.75;;;;;;;17.34;52.97;96438.88;5108949;28;20043;-34
2022/12/07 01:02:52;;;;;;;6.80;2.17;;;;;;;17.36;53.19;96439.16;5112316;28;20075;-35
2022/12/07 01:05:17;;;;;;;7.93;2.58;;;;;;;17.29;52.99;96434.84;5110399;28;20023;-34
2022/12/07 01:07:43;;;;;;;8.30;2.17;;;;;;;17.27;53.12;96440.03;5112289;28;20516;-35
2022/12/07 01:10:09;;;;;;;7.55;2.35;;;;;;;17.28;53.36;96429.81;5112284;28;20028;-35
2022/12/07 01:12:34;;;;;;;6.97;2.10;;;;;;;17.27;53.34;96434.53;5112550;28;20110;-35
2022/12/07 01:14:59;;;;;;;4.63;2.30;;;;;;;17.28;53.23;96441.53;5112426;28;20020;-34
2022/12/07 01:17:25;;;;;;;4.78;2.40;;;;;;;17.32;53.09;96441.34;5112074;28;20485;-34
2022/12/07 01:19:50;;;;;;;4.45;2.22;;;;;;;17.30;53.22;96439.09;5112302;28;20031;-33
2022/12/07 01:22:16;;;;;;;6.88;2.45;;;;;;;17.28;53.29;96446.25;5112310;28;20478;-35
2022/12/07 01:24:41;;;;;;;6.85;2.15;;;;;;;17.28;53.31;96441.53;5112035;28;20024;-34
2022/12/07 01:27:07;;;;;;;6.05;1.90;;;;;;;17.29;53.32;96448.53;5112042;28;20412;-33
2022/12/07 01:29:32;;;;;;;6.45;2.20;;;;;;;17.25;53.49;96439.72;5112032;28;20027;-35
2022/12/07 01:31:58;;;;;;;5.13;2.05;;;;;;;17.27;53.53;96436.53;5112407;28;20023;-33
2022/12/07 01:34:23;;;;;;;6.95;1.90;;;;;;;17.27;53.49;96439.25;5111898;28;20039;-34
2022/12/07 01:36:49;;;;;;;6.13;2.47;;;;;;;17.26;53.57;96443.97;5112321;28;20027;-35
2022/12/07 01:39:14;;;;;;;5.38;1.98;;;;;;;17.25;53.61;96442.47;5112245;28;20396;-35
2022/12/07 01:41:43;;;;;;;5.50;2.40;;;;;;;17.31;53.50;96443.31;5111800;28;20440;-34
2022/12/07 01:44:22;;;;;;;5.28;2.40;;;;;;;17.29;53.36;96434.84;5112142;28;20102;-35
2022/12/07 01:47:07;;;;;;;6.53;1.95;;;;;;;17.26;53.90;96427.53;5111951;28;20031;-34
2022/12/07 01:49:40;;;;;;;7.45;2.00;;;;;;;17.24;53.72;96417.03;5111877;28;20084;-33
2022/12/07 01:52:17;;;;;;;7.13;1.77;;;;;;;17.28;53.60;96414.13;5111900;28;20114;-33
2022/12/07 01:54:45;;;;;;;7.03;2.00;;;;;;;17.24;53.72;96427.25;5111721;28;20038;-33
2022/12/07 01:57:13;;;;;;;3.13;2.00;;;;;;;17.21;53.81;96430.91;5112053;28;20031;-34
2022/12/07 01:59:39;;;;;;;7.47;3.03;;;;;;;17.24;53.67;96421.78;5111815;28;20023;-34
2022/12/07 02:02:12;;;;;;;5.22;1.80;;;;;;;17.22;53.65;96421.47;5111766;28;20518;-33
2022/12/07 02:04:37;;;;;;;6.90;2.53;;;;;;;17.19;53.76;96416.94;5109894;28;20470;-34
2022/12/07 02:07:04;;;;;;;5.20;2.25;;;;;;;17.19;53.68;96417.69;5111566;28;20035;-35
2022/12/07 02:09:29;;;;;;;7.40;1.92;;;;;;;17.18;53.72;96407.22;5111433;28;20048;-34
2022/12/07 02:11:56;;;;;;;7.47;2.10;;;;;;;17.19;53.80;96405.97;5111719;28;20023;-33
2022/12/07 02:14:21;;;;;;;6.10;2.20;;;;;;;17.16;53.27;96406.94;5111714;28;20499;-33
2022/12/07 02:17:05;;;;;;;6.22;2.13;;;;;;;17.13;53.82;96403.13;5111925;28;20032;-34
2022/12/07 02:19:42;;;;;;;7.72;2.15;;;;;;;17.21;53.62;96404.28;5111667;28;20034;-34
2022/12/07 02:22:17;;;;;;;7.30;2.70;;;;;;;17.15;53.60;96402.66;5111670;28;20466;-35
2022/12/07 02:25:05;;;;;;;7.45;2.50;;;;;;;17.15;53.82;96394.44;5111762;28;20544;-35
2022/12/07 02:27:47;;;;;;;7.05;2.35;;;;;;;17.14;53.72;96398.41;5111528;28;20398;-34
2022/12/07 02:30:15;;;;;;;6.93;2.10;;;;;;;17.15;53.65;96399.94;5111488;28;20031;-34
2022/12/07 02:32:43;;;;;;;7.15;2.15;;;;;;;17.16;53.39;96385.00;5111643;28;20102;-35
2022/12/07 02:35:11;;;;;;;7.40;2.60;;;;;;;17.11;53.57;96394.63;5111542;28;20095;-33
2022/12/07 02:37:40;;;;;;;6.07;2.40;;;;;;;17.06;53.71;96387.03;5112580;28;20475;-33
2022/12/07 02:40:06;;;;;;;3.88;1.88;;;;;;;17.07;53.45;96387.81;5115526;28;20128;-33
2022/12/07 02:42:36;;;;;;;7.25;2.10;;;;;;;17.08;53.62;96383.84;5115086;28;20443;-34
2022/12/07 02:45:04;;;;;;;5.43;2.10;;;;;;;17.09;53.50;96388.84;5115305;28;20031;-35
2022/12/07 02:47:33;;;;;;;7.07;2.75;;;;;;;17.05;53.56;96384.81;5113457;28;20112;-35
2022/12/07 02:49:59;;;;;;;6.95;2.22;;;;;;;17.03;53.48;96393.47;5115294;28;20046;-35
2022/12/07 02:52:25;;;;;;;6.32;2.10;;;;;;;16.98;53.77;96385.16;5115263;28;20110;-36
2022/12/07 02:54:50;;;;;;;6.93;2.35;;;;;;;17.04;53.65;96383.28;5108479;28;20107;-33
2022/12/07 02:57:43;;;;;;;8.07;2.20;;;;;;;17.07;53.38;96382.31;5117205;28;20024;-33
2022/12/07 03:00:13;;;;;;;7.20;2.50;;;;;;;17.04;53.45;96381.31;5114607;28;20043;-33
2022/12/07 03:03:03;;;;;;;6.65;2.30;;;;;;;17.06;53.23;96384.31;5116682;28;20484;-34
2022/12/07 03:06:07;;;;;;;5.47;2.30;;;;;;;17.04;53.16;96375.81;5116899;27;20075;-33
2022/12/07 03:08:38;;;;;;;;;;;;;;;16.98;53.33;96382.41;5117303;28;20028;-34
2022/12/07 03:11:10;;;;;;;7.60;2.67;;;;;;;17.04;53.19;96386.03;5116701;28;19920;-34
2022/12/07 03:13:49;;;;;;;5.15;2.22;;;;;;;16.98;53.33;96372.22;5116823;28;20020;-33
2022/12/07 03:16:18;;;;;;;11.98;2.95;;;;;;;16.99;53.09;96376.47;5116883;28;20203;-34
2022/12/07 03:18:54;;;;;;;7.50;2.78;;;;;;;16.99;53.38;96375.72;5116639;28;20030;-35
2022/12/07 03:21:25;;;;;;;8.32;2.70;;;;;;;17.00;53.22;96371.75;5116670;28;20019;-34
2022/12/07 03:23:55;;;;;;;7.20;2.33;;;;;;;17.01;53.46;96367.78;5116971;28;20023;-33
2022/12/07 03:26:28;;;;;;;7.72;2.75;;;;;;;16.96;53.26;96379.38;5116394;28;20040;-35
2022/12/07 03:28:59;;;;;;;11.23;2.67;;;;;;;17.06;52.99;96361.66;5116697;28;20049;-33
2022/12/07 03:31:32;;;;;;;7.63;2.65;;;;;;;17.02;53.23;96358.34;5116531;28;20471;-34
2022/12/07 03:34:05;;;;;;;5.88;2.20;;;;;;;16.96;53.40;96365.69;5116366;28;20136;-35
2022/12/07 03:36:44;;;;;;;7.00;3.05;;;;;;;17.00;53.15;96363.53;5116298;28;20020;-34
2022/12/07 03:39:09;;;;;;;9.43;2.78;;;;;;;16.99;53.17;96364.75;5114838;28;20441;-33
2022/12/07 03:41:43;;;;;;;8.57;2.90;;;;;;;16.97;53.21;96362.47;5116208;28;20102;-34
2022/12/07 03:44:09;;;;;;;6.50;3.10;;;;;;;17.04;53.05;96359.38;5116201;28;20031;-34
2022/12/07 03:47:05;;;;;;;6.38;3.03;;;;;;;17.01;52.94;96362.28;5116037;28;20428;-34
2022/12/07 03:49:49;;;;;;;6.38;2.80;;;;;;;17.00;52.98;96361.53;5115873;28;20387;-34
2022/12/07 03:52:40;;;;;;;7.15;3.00;;;;;;;16.99;53.09;96357.28;5116230;28;20032;-33
2022/12/07 03:55:18;;;;;;;10.52;2.85;;;;;;;16.99;53.31;96362.75;5115964;28;20027;-34
2022/12/07 03:57:47;;;;;;;7.47;2.60;;;;;;;16.94;53.36;96357.94;5115746;28;20015;-35
2022/12/07 04:00:13;;;;;;;5.03;2.55;;;;;;;16.94;53.19;96357.19;5115749;28;20027;-34
2022/12/07 04:02:39;;;;;;;6.97;3.00;;;;;;;16.91;53.47;96355.38;5115695;28;20142;-34
2022/12/07 04:05:05;;;;;;;8.93;2.88;;;;;;;16.93;53.37;96355.69;5115808;28;20103;-34
2022/12/07 04:07:31;;;;;;;6.15;3.30;;;;;;;16.90;53.37;96351.91;5115880;28;20460;-34
2022/12/07 04:10:00;;;;;;;7.82;2.42;;;;;;;16.93;53.37;96348.22;5115753;28;20028;-36
2022/12/07 04:12:25;;;;;;;6.85;2.80;;;;;;;16.96;53.48;96351.97;5115961;28;20127;-34
2022/12/07 04:14:51;;;;;;;6.43;2.22;;;;;;;16.95;53.39;96342.25;5114597;28;20510;-33
2022/12/07 04:17:16;;;;;;;7.45;2.80;;;;;;;16.88;53.58;96346.88;5115677;28;20031;-34
2022/12/07 04:19:42;;;;;;;7.10;2.35;;;;;;;16.85;53.65;96345.06;5115538;28;20099;-33
2022/12/07 04:22:07;;;;;;;7.20;2.53;;;;;;;16.77;53.92;96341.19;5115706;28;20019;-33
2022/12/07 04:24:34;;;;;;;7.88;2.42;;;;;;;16.82;53.95;96335.06;5115284;28;20383;-33
2022/12/07 04:26:59;;;;;;;6.30;2.30;;;;;;;16.94;53.55;96338.03;5115489;28;20035;-33
2022/12/07 04:29:25;;;;;;;6.03;2.50;;;;;;;16.88;53.73;96341.41;5115289;28;20467;-34
2022/12/07 04:31:51;;;;;;;5.05;2.42;;;;;;;16.87;53.82;96339.13;5115417;27;20058;-33
2022/12/07 04:34:18;;;;;;;4.57;2.08;;;;;;;16.90;53.67;96331.97;5115218;28;20055;-34
2022/12/07 04:36:44;;;;;;;10.35;3.03;;;;;;;16.85;53.75;96333.38;5115271;28;20016;-34
2022/12/07 04:39:23;;;;;;;6.75;2.03;;;;;;;16.85;53.87;96334.13;5115547;28;20031;-35
2022/12/07 04:41:48;;;;;;;8.57;2.38;;;;;;;16.87;53.68;96328.16;5115111;28;20023;-34
2022/12/07 04:44:14;;;;;;;5.00;2.00;;;;;;;16.82;53.84;96329.56;5105691;28;20058;-34
2022/12/07 04:46:41;;;;;;;9.23;2.10;;;;;;;16.84;53.82;96326.38;5094534;28;20464;-33
2022/12/07 04:49:06;;;;;;;5.68;2.40;;;;;;;16.81;53.93;96328.06;5105062;28;20035;-34
2022/12/07 04:51:32;;;;;;;5.57;2.00;;;;;;;16.80;53.93;96321.09;5111816;28;20024;-33
2022/12/07 04:53:58;;;;;;;5.28;2.10;;;;;;;16.81;53.97;96317.09;5093236;28;20754;-35
2022/12/07 04:56:24;;;;;;;7.80;2.40;;;;;;;16.77;54.00;96322.03;5092227;28;20050;-34
2022/12/07 04:58:52;;;;;;;6.40;2.10;;;;;;;16.80;54.10;96329.31;5093936;28;20030;-33
2022/12/07 05:01:18;;;;;;;5.30;2.22;;;;;;;16.89;53.71;96333.94;5093486;28;20035;-34
2022/12/07 05:03:44;;;;;;;7.13;2.35;;;;;;;16.77;54.04;96324.75;5094318;28;20035;-33
2022/12/07 05:06:10;;;;;;;8.73;2.40;;;;;;;16.80;53.87;96331.28;5094369;28;20032;-34
2022/12/07 05:08:36;;;;;;;4.88;1.88;;;;;;;16.76;54.15;96328.72;5094194;28;20427;-35
2022/12/07 05:11:03;;;;;;;8.18;2.75;;;;;;;16.77;54.14;96340.44;5094038;28;20221;-33
2022/12/07 05:13:29;;;;;;;6.78;2.40;;;;;;;16.81;53.70;96333.53;5093399;28;20384;-35
2022/12/07 05:15:55;;;;;;;3.90;1.92;;;;;;;16.80;53.71;96325.81;5093840;28;20024;-34
2022/12/07 05:18:21;;;;;;;7.05;2.35;;;;;;;16.78;53.81;96322.78;5094040;28;20357;-33
2022/12/07 05:20:47;;;;;;;5.35;2.03;;;;;;;16.75;54.08;96319.00;5092723;28;20046;-35
2022/12/07 05:23:12;;;;;;;7.50;2.25;;;;;;;16.75;54.12;96319.00;5094019;28;20023;-33
2022/12/07 05:25:38;;;;;;;4.90;2.00;;;;;;;16.73;54.05;96320.69;5093783;28;20020;-34
2022/12/07 05:28:04;;;;;;;4.47;2.10;;;;;;;16.80;53.96;96321.09;5093791;28;20024;-35
2022/12/07 05:30:30;;;;;;;5.68;2.33;;;;;;;16.82;53.69;96326.06;5093752;28;20630;-34
2022/12/07 05:32:56;;;;;;;3.75;2.15;;;;;;;16.74;53.86;96316.72;5093659;28;20032;-33
2022/12/07 05:35:21;;;;;;;5.45;2.47;;;;;;;16.76;53.89;96325.22;5094187;28;20020;-35
2022/12/07 05:37:47;;;;;;;6.60;2.67;;;;;;;16.79;53.88;96329.78;5093696;28;20498;-34
2022/12/07 05:40:14;;;;;;;7.35;2.67;;;;;;;16.72;54.30;96328.13;5093888;28;20028;-34
2022/12/07 05:42:40;;;;;;;8.65;2.75;;;;;;;16.83;53.66;96331.09;5093621;28;20032;-33
2022/12/07 05:45:07;;;;;;;6.03;2.75;;;;;;;16.75;53.95;96334.66;5093450;28;20020;-35
2022/12/07 05:47:32;;;;;;;9.13;3.25;;;;;;;16.80;53.84;96334.78;5093813;28;20035;-34
2022/12/07 05:49:58;;;;;;;9.30;3.08;;;;;;;16.69;54.26;96326.34;5093535;28;20024;-36
2022/12/07 05:52:24;;;;;;;8.32;3.05;;;;;;;16.78;53.85;96334.50;5093556;28;20488;-33
2022/12/07 05:54:49;;;;;;;7.85;3.13;;;;;;;16.72;54.05;96338.34;5093541;28;20027;-35
2022/12/07 05:57:14;;;;;;;9.07;3.47;;;;;;;16.68;54.42;96329.56;5093519;28;20028;-35
2022/12/07 05:59:40;;;;;;;10.88;3.58;;;;;;;16.76;53.92;96336.19;5093355;28;20099;-33
2022/12/07 06:02:08;;;;;;;12.57;3.78;;;;;;;16.75;54.04;96335.44;5093114;28;20055;-35
2022/12/07 06:04:37;;;;;;;6.90;3.05;;;;;;;16.71;53.92;96337.56;5093563;28;20028;-34
2022/12/07 06:07:03;;;;;;;11.10;3.20;;;;;;;16.80;53.79;96345.75;5092106;28;20027;-33
2022/12/07 06:09:29;;;;;;;11.55;3.83;;;;;;;16.69;54.13;96333.81;5093368;28;20099;-33
2022/12/07 06:14:40;;;;;;;6.60;3.60;;;;;;;16.76;53.90;96339.69;5097869;28;20026;-35
2022/12/07 06:17:06;;;;;;;8.05;3.53;;;;;;;16.67;54.19;96333.53;5097499;28;20438;-35
2022/12/07 06:19:31;;;;;;;17.73;5.13;;;;;;;16.67;54.17;96337.03;5097216;28;20024;-35
2022/12/07 06:21:57;;;;;;;12.40;3.83;;;;;;;16.70;54.33;96332.56;5097361;28;20055;-34
2022/12/07 06:24:23;;;;;;;9.43;3.63;;;;;;;16.64;54.30;96340.69;5097251;28;20024;-34
2022/12/07 06:26:48;;;;;;;10.50;3.28;;;;;;;16.71;53.98;96337.56;5097231;28;20032;-33
2022/12/07 06:29:15;;;;;;;8.88;3.60;;;;;;;16.68;53.99;96332.31;5097309;28;20020;-34
2022/12/07 06:31:41;;;;;;;9.60;3.25;;;;;;;16.76;53.83;96327.97;5097100;28;20020;-35
2022/12/07 06:34:10;;;;;;;10.55;3.28;;;;;;;16.79;53.80;96341.50;5097158;28;20016;-37
2022/12/07 06:36:36;;;;;;;7.35;3.28;;;;;;;16.74;53.73;96336.66;5097084;28;20024;-36
2022/12/07 06:39:03;;;;;;;13.73;3.70;;;;;;;16.69;54.31;96337.28;5096746;28;20031;-35
2022/12/07 06:41:29;;;;;;;10.23;4.50;;;;;;;16.71;54.04;96337.56;5096830;28;20028;-36
2022/12/07 06:43:55;;;;;;;9.27;3.92;;;;;;;16.63;54.06;96336.44;5097012;28;20042;-35
2022/12/07 06:46:20;;;;;;;9.73;3.95;;;;;;;16.66;54.49;96334.75;5095527;28;20020;-35
2022/12/07 06:48:46;;;;;;;9.50;4.30;;;;;;;16.71;54.11;96337.56;5096974;28;20020;-36
2022/12/07 06:51:11;;;;;;;13.43;4.38;;;;;;;16.74;54.06;96338.63;5109661;28;20019;-37
2022/12/07 06:53:37;;;;;;;8.98;3.97;;;;;;;16.65;54.46;96334.00;5117245;28;20341;-35
2022/12/07 06:56:04;;;;;;;8.57;4.35;;;;;;;16.67;54.26;96339.75;5116315;28;20076;-35
2022/12/07 06:58:30;;;;;;;10.68;4.18;;;;;;;16.70;54.13;96335.31;5117230;28;20023;-35
2022/12/07 07:00:56;;;;;;;7.70;4.10;;;;;;;16.73;54.17;96328.91;5112265;28;20023;-35
2022/12/07 07:03:21;;;;;;;10.73;4.25;;;;;;;16.71;53.97;96328.59;5094288;28;20051;-37
2022/12/07 07:05:47;;;;;;;10.48;4.65;;;;;;;16.65;54.38;96335.97;5094227;28;20475;-36
2022/12/07 07:08:13;;;;;;;11.63;5.53;;;;;;;16.70;54.17;96338.81;5094383;28;20439;-36
2022/12/07 07:10:39;;;;;;;14.55;4.75;;;;;;;16.63;54.54;96344.66;5094298;28;20024;-36
2022/12/07 07:13:05;;;;;;;14.07;5.38;;;;;;;16.59;54.64;96338.56;5103766;28;20098;-36
2022/12/07 07:15:32;;;;;;;8.45;4.63;;;;;;;16.63;54.55;96339.19;5112495;28;20022;-37
2022/12/07 07:17:57;;;;;;;11.90;4.95;;;;;;;16.66;54.58;96337.47;5114415;28;20027;-36
2022/12/07 07:20:23;;;;;;;11.02;5.68;;;;;;;16.63;54.66;96346.63;5114031;28;20019;-36
2022/12/07 07:22:49;;;;;;;9.77;6.32;;;;;;;16.65;54.74;96342.22;5113753;28;20460;-36
2022/12/07 07:25:15;;;;;;;13.43;7.15;;;;;;;16.59;54.74;96349.50;5114100;28;20085;-36
2022/12/07 07:27:41;;;;;;;13.70;6.70;;;;;;;16.66;54.55;96343.72;5114396;28;20027;-37
2022/12/07 07:30:07;;;;;;;15.40;5.70;;;;;;;16.66;54.62;96342.97;5114485;28;20027;-36
2022/12/07 07:32:33;;;;;;;10.82;5.68;;;;;;;16.69;54.59;96342.03;5113884;27;20548;-37
2022/12/07 07:34:58;;;;;;;11.18;6.07;;;;;;;16.68;54.65;96346.75;5114128;28;20032;-37
2022/12/07 07:37:25;;;;;;;11.63;6.30;;;;;;;16.66;54.79;96348.44;5113905;28;20092;-37
2022/12/07 07:39:50;;;;;;;11.85;5.95;;;;;;;16.69;54.74;96353.72;5112851;28;20461;-35
2022/12/07 07:42:16;;;;;;;17.73;6.15;;;;;;;16.56;55.04;96346.97;5113950;28;20115;-35
2022/12/07 07:44:41;;;;;;;9.45;5.50;;;;;;;16.65;54.82;96342.22;5106491;28;20035;-36
2022/12/07 07:47:07;;;;;;;12.38;6.30;;;;;;;16.58;54.96;96352.72;5093748;28;20024;-36
2022/12/07 07:49:32;;;;;;;13.15;5.75;;;;;;;16.64;54.92;96354.38;5102591;28;20025;-37
2022/12/07 07:51:58;;;;;;;11.40;5.53;;;;;;;16.60;55.17;96358.47;5114129;28;20028;-34
2022/12/07 07:54:23;;;;;;;9.52;5.30;;;;;;;16.58;55.09;96358.94;5114054;28;20119;-35
2022/12/07 07:56:49;;;;;;;10.27;5.72;;;;;;;16.62;55.10;96364.25;5113923;28;20114;-35
2022/12/07 07:59:15;;;;;;;10.15;5.32;;;;;;;16.62;55.11;96356.03;5113787;28;20029;-36
2022/12/07 08:01:40;;;;;;;10.95;5.22;;;;;;;16.68;54.62;96357.69;5113281;28;20043;-35
2022/12/07 08:04:06;;;;;;;9.38;4.97;;;;;;;16.67;54.73;96356.19;5113604;28;20030;-35
2022/12/07 08:06:31;;;;;;;8.35;4.45;;;;;;;16.66;54.83;96360.16;5112165;28;20061;-36
2022/12/07 08:08:58;;;;;;;12.77;5.03;;;;;;;16.65;54.79;96366.09;5113362;28;20468;-37
2022/12/07 08:11:24;;;;;;;8.65;4.35;;;;;;;16.63;54.88;96365.78;5112913;28;20027;-35
2022/12/07 08:13:49;;;;;;;10.85;4.93;;;;;;;16.59;55.01;96365.94;5113059;27;20102;-35
2022/12/07 08:16:15;;;;;;;13.02;4.55;;;;;;;16.58;55.01;96369.91;5111595;28;20027;-35
2022/12/07 08:18:42;;;;;;;11.55;5.97;;;;;;;16.62;54.94;96356.03;5113400;28;20031;-35
2022/12/07 08:21:11;;;;;;;10.30;5.28;;;;;;;16.68;54.68;96354.22;5113452;28;20068;-35
2022/12/07 08:23:37;;;;;;;11.65;5.30;;;;;;;16.61;54.87;96352.53;5113284;28;20042;-35
2022/12/07 08:26:05;;;;;;;9.95;4.63;;;;;;;16.70;54.79;96357.97;5112911;28;20472;-35
2022/12/07 08:28:31;;;;;;;10.02;4.30;;;;;;;16.72;54.70;96357.50;5113091;28;20027;-35
2022/12/07 08:31:17;;;;;;;10.57;4.72;;;;;;;16.62;55.05;96354.09;5113193;28;20164;-35
2022/12/07 08:33:45;;;;;;;11.15;4.60;;;;;;;16.63;55.06;96357.59;5113291;28;20031;-34
2022/12/07 08:36:11;;;;;;;9.52;4.32;;;;;;;16.65;54.85;96357.88;5111885;28;20485;-35
2022/12/07 08:38:39;;;;;;;9.15;5.07;;;;;;;16.61;55.14;96355.28;5113119;28;20550;-35
2022/12/07 08:41:05;;;;;;;9.48;4.38;;;;;;;16.67;54.91;96358.94;5111668;28;20270;-35
2022/12/07 08:43:31;;;;;;;10.52;4.45;;;;;;;16.66;55.11;96362.88;5113166;28;20028;-34
2022/12/07 08:46:11;;;;;;;12.25;4.70;;;;;;;16.66;54.90;96365.63;5111169;28;20027;-35
2022/12/07 08:48:46;;;;;;;11.15;3.80;;;;;;;16.65;55.14;96366.84;5111197;28;20030;-35
2022/12/07 08:51:12;;;;;;;12.90;4.03;;;;;;;16.68;54.92;96370.63;5112596;28;20100;-35
2022/12/07 08:53:38;;;;;;;10.38;4.22;;;;;;;16.67;54.92;96367.16;5112883;28;20047;-35
2022/12/07 08:56:05;;;;;;;8.77;4.03;;;;;;;16.60;55.01;96366.69;5112819;28;20035;-35
2022/12/07 08:58:31;;;;;;;8.43;4.30;;;;;;;16.64;55.13;96373.53;5112846;28;20020;-35
2022/12/07 09:00:57;;;;;;;9.20;3.70;;;;;;;16.65;55.13;96372.31;5112395;28;20032;-37
2022/12/07 09:03:22;;;;;;;9.35;4.65;;;;;;;16.65;55.12;96372.31;5112346;28;20044;-35
2022/12/07 09:05:48;;;;;;;9.38;4.05;;;;;;;16.65;55.13;96375.06;5111969;28;20036;-35
2022/12/07 09:08:14;;;;;;;11.75;4.18;;;;;;;16.65;55.01;96374.31;5112366;28;20051;-35
2022/12/07 09:10:39;;;;;;;12.98;4.70;;;;;;;16.24;56.22;96367.69;5109598;28;20402;-34
2022/12/07 09:13:05;;;;;;;20.80;7.97;;;;;;;15.82;58.46;96369.25;5112033;28;20111;-34
2022/12/07 09:15:31;;;;;;;20.00;8.10;;;;;;;15.62;60.08;96362.81;5110932;28;20028;-35
2022/12/07 09:17:56;;;;;;;18.75;8.27;;;;;;;15.55;60.40;96357.66;5112087;27;20023;-34
2022/12/07 09:20:22;;;;;;;22.17;8.18;;;;;;;15.43;60.81;96359.34;5111409;28;20096;-33
2022/12/07 09:22:48;;;;;;;18.55;6.35;;;;;;;15.13;61.86;96366.53;5093886;28;20027;-33
2022/12/07 09:25:14;;;;;;;22.17;6.78;;;;;;;15.65;60.09;96372.81;5093809;28;20032;-34
2022/12/07 09:27:40;;;;;;;26.25;6.78;;;;;;;16.01;58.75;96377.38;5093989;28;20058;-35
2022/12/07 09:30:06;;;;;;;22.35;7.50;;;;;;;16.33;57.45;96364.88;5093937;28;20509;-34
2022/12/07 09:32:31;;;;;;;20.08;7.30;;;;;;;16.43;57.22;96372.59;5093876;28;20055;-35
2022/12/07 09:34:57;;;;;;;13.10;6.43;;;;;;;16.53;56.66;96367.81;5093204;28;20031;-34
2022/12/07 09:37:22;;;;;;;15.75;5.45;;;;;;;16.58;56.52;96364.41;5093415;28;20020;-34
2022/12/07 09:39:48;;;;;;;13.50;6.22;;;;;;;16.59;56.59;96376.13;5093880;28;20379;-35
2022/12/07 09:42:35;;;;;;;12.30;4.82;;;;;;;16.61;56.23;96368.22;5093541;28;20475;-34
2022/12/07 09:45:01;;;;;;;11.05;5.10;;;;;;;16.68;56.03;96362.44;5093385;28;20077;-36
2022/12/07 09:47:28;;;;;;;7.97;4.35;;;;;;;16.63;56.30;96369.28;5093688;28;20020;-35
2022/12/07 09:50:03;;;;;;;15.38;5.35;;;;;;;16.60;56.23;96378.41;5093616;28;20518;-34
2022/12/07 09:52:28;;;;;;;14.40;4.85;;;;;;;16.60;56.45;96359.25;5093844;28;20024;-34
2022/12/07 09:54:54;;;;;;;15.55;4.70;;;;;;;16.72;55.68;96365.72;5093505;28;20069;-35
2022/12/07 09:57:34;;;;;;;13.27;4.57;;;;;;;16.60;56.25;96355.75;5093640;28;20028;-35
2022/12/07 10:00:21;;;;;;;13.80;4.93;;;;;;;16.51;56.36;96359.31;5093390;28;20476;-34
2022/12/07 10:03:00;;;;;;;12.20;5.05;;;;;;;16.65;56.07;96364.09;5093315;28;20063;-34
2022/12/07 10:05:39;;;;;;;11.38;4.65;;;;;;;16.66;56.05;96360.16;5093580;28;20487;-35
2022/12/07 10:08:05;;;;;;;7.72;4.28;;;;;;;16.62;56.09;96359.56;5093947;28;20028;-34
2022/12/07 10:10:38;;;;;;;10.07;4.13;;;;;;;16.66;55.89;96354.66;5093419;28;20031;-34
2022/12/07 10:13:03;;;;;;;10.27;3.58;;;;;;;16.70;55.78;96352.50;5093544;28;20024;-35
2022/12/07 10:15:52;;;;;;;9.25;3.65;;;;;;;16.67;55.79;96344.47;5093519;28;20077;-35
2022/12/07 10:18:25;;;;;;;12.90;3.67;;;;;;;16.71;55.55;96348.53;5093346;28;20019;-34
2022/12/07 10:21:25;;;;;;;7.65;3.85;;;;;;;16.78;55.34;96339.97;5093289;28;20035;-35
2022/12/07 10:24:01;;;;;;;8.77;3.88;;;;;;;16.63;55.86;96346.63;5093288;28;20035;-34
2022/12/07 10:26:33;;;;;;;7.85;4.30;;;;;;;16.69;55.60;96353.00;5093104;28;20361;-34
2022/12/07 10:29:02;;;;;;;7.70;3.67;;;;;;;16.65;55.91;96350.41;5093286;28;20024;-35
2022/12/07 10:31:28;;;;;;;7.78;3.47;;;;;;;16.55;56.19;96354.44;5093167;28;20028;-34
2022/12/07 10:33:59;;;;;;;6.50;3.55;;;;;;;16.56;56.44;96355.19;5093365;28;20030;-34
2022/12/07 10:36:38;;;;;;;7.82;3.38;;;;;;;16.69;55.87;96348.25;5093279;28;20016;-34
2022/12/07 10:39:13;;;;;;;7.53;3.10;;;;;;;16.71;55.75;96345.03;5093001;28;20027;-34
2022/12/07 10:42:01;;;;;;;9.10;3.60;;;;;;;16.66;55.89;96338.25;5093342;28;20020;-35
2022/12/07 10:44:31;;;;;;;6.25;3.00;;;;;;;16.62;55.97;96337.66;5093093;28;20016;-36
2022/12/07 10:47:18;;;;;;;9.27;3.20;;;;;;;16.69;55.75;96325.59;5093076;28;20039;-34
2022/12/07 10:49:55;;;;;;;5.53;3.17;;;;;;;16.68;55.70;96322.09;5093125;28;20028;-35
2022/12/07 10:52:30;;;;;;;10.02;3.70;;;;;;;16.76;55.55;96326.00;5093094;28;20028;-34
2022/12/07 10:55:05;;;;;;;8.07;3.30;;;;;;;16.77;55.43;96318.53;5104128;28;20032;-36
2022/12/07 10:57:54;;;;;;;9.15;3.58;;;;;;;16.58;56.18;96314.38;5113487;28;20019;-35
2022/12/07 11:00:25;;;;;;;9.60;3.42;;;;;;;16.55;56.42;96309.88;5117212;28;20051;-34
2022/12/07 11:02:56;;;;;;;9.57;3.25;;;;;;;16.61;56.17;96297.78;5113941;28;20084;-36
2022/12/07 11:05:43;;;;;;;9.68;3.40;;;;;;;16.69;56.11;96298.94;5117002;28;20052;-34
2022/12/07 11:08:43;;;;;;;8.05;3.63;;;;;;;16.71;55.96;96296.50;5117069;28;20483;-35
2022/12/07 11:11:34;;;;;;;7.88;3.22;;;;;;;16.70;55.84;96289.50;5117120;28;20136;-34
2022/12/07 11:14:06;;;;;;;6.03;3.50;;;;;;;16.67;56.15;96295.94;5116764;28;20100;-35
2022/12/07 11:16:55;;;;;;;7.13;2.83;;;;;;;16.66;56.11;96286.22;5116601;28;20019;-36
2022/12/07 11:19:41;;;;;;;9.63;3.58;;;;;;;16.66;56.28;96288.97;5115578;28;20100;-34
2022/12/07 11:22:36;;;;;;;7.88;3.03;;;;;;;16.64;56.27;96290.66;5114616;28;20028;-34
2022/12/07 11:25:22;;;;;;;8.52;3.15;;;;;;;16.69;56.29;96284.53;5116343;28;20077;-35
2022/12/07 11:28:00;;;;;;;8.95;3.50;;;;;;;16.72;56.01;96283.56;5116632;28;20020;-34
2022/12/07 11:31:07;;;;;;;7.93;3.80;;;;;;;16.75;56.15;96286.13;5116486;28;20441;-34
2022/12/07 11:33:58;;;;;;;6.25;3.15;;;;;;;16.71;56.09;96273.84;5116504;28;20096;-36
2022/12/07 11:36:41;;;;;;;7.47;3.13;;;;;;;16.72;57.06;96278.09;5116522;27;20019;-34
2022/12/07 11:39:27;;;;;;;13.23;5.57;;;;;;;16.69;56.67;96271.56;5116693;28;20051;-36
2022/12/07 11:41:57;;;;;;;22.13;8.82;;;;;;;16.66;57.54;96275.28;5115033;27;20077;-34
2022/12/07 11:44:51;;;;;;;16.40;6.60;;;;;;;16.77;56.52;96261.78;5116434;28;20057;-36
2022/12/07 11:47:46;;;;;;;9.77;4.20;;;;;;;16.61;56.79;96262.19;5116217;28;20023;-34